sensor_id;sensor_type;location;lat;lon;timestamp;pressure;altitude;pressure_sealevel;temperature;humidity
57412;BME280;43247;52.828;-8.980;2023-06-26T00:00:10;101607.70;;;16.37;78.88
57412;BME280;43247;52.828;-8.980;2023-06-26T00:01:09;101606.87;;;16.37;78.95
57412;BME280;43247;52.828;-8.980;2023-06-26T00:02:09;101607.82;;;16.36;78.95
57412;BME280;43247;52.828;-8.980;2023-06-26T00:03:09;101605.29;;;16.36;79.06
57412;BME280;43247;52.828;-8.980;2023-06-26T00:04:09;101605.92;;;16.35;79.03
57412;BME280;43247;52.828;-8.980;2023-06-26T00:05:09;101605.69;;;16.35;79.16
57412;BME280;43247;52.828;-8.980;2023-06-26T00:06:09;101608.71;;;16.35;79.09
57412;BME280;43247;52.828;-8.980;2023-06-26T00:07:10;101608.35;;;16.34;79.10
57412;BME280;43247;52.828;-8.980;2023-06-26T00:08:10;101609.49;;;16.34;79.37
57412;BME280;43247;52.828;-8.980;2023-06-26T00:09:10;101609.00;;;16.34;79.29
57412;BME280;43247;52.828;-8.980;2023-06-26T00:10:10;101611.54;;;16.34;79.21
57412;BME280;43247;52.828;-8.980;2023-06-26T00:11:10;101609.26;;;16.34;79.32
57412;BME280;43247;52.828;-8.980;2023-06-26T00:12:10;101610.52;;;16.33;79.41
57412;BME280;43247;52.828;-8.980;2023-06-26T00:13:10;101611.34;;;16.33;79.38
57412;BME280;43247;52.828;-8.980;2023-06-26T00:14:11;101610.48;;;16.33;79.33
57412;BME280;43247;52.828;-8.980;2023-06-26T00:15:11;101612.14;;;16.32;79.34
57412;BME280;43247;52.828;-8.980;2023-06-26T00:16:11;101612.15;;;16.32;79.38
57412;BME280;43247;52.828;-8.980;2023-06-26T00:17:12;101611.57;;;16.32;79.30
57412;BME280;43247;52.828;-8.980;2023-06-26T00:18:12;101610.85;;;16.31;79.24
57412;BME280;43247;52.828;-8.980;2023-06-26T00:19:12;101611.53;;;16.32;79.25
57412;BME280;43247;52.828;-8.980;2023-06-26T00:20:12;101609.05;;;16.31;79.32
57412;BME280;43247;52.828;-8.980;2023-06-26T00:21:12;101609.15;;;16.30;79.30
57412;BME280;43247;52.828;-8.980;2023-06-26T00:22:12;101609.65;;;16.30;79.28
57412;BME280;43247;52.828;-8.980;2023-06-26T00:23:13;101609.31;;;16.30;79.25
57412;BME280;43247;52.828;-8.980;2023-06-26T00:24:13;101610.88;;;16.29;79.24
57412;BME280;43247;52.828;-8.980;2023-06-26T00:25:13;101610.49;;;16.29;79.17
57412;BME280;43247;52.828;-8.980;2023-06-26T00:26:14;101612.15;;;16.28;79.33
57412;BME280;43247;52.828;-8.980;2023-06-26T00:27:14;101611.72;;;16.27;79.34
57412;BME280;43247;52.828;-8.980;2023-06-26T00:28:14;101611.90;;;16.27;79.33
57412;BME280;43247;52.828;-8.980;2023-06-26T00:29:14;101611.07;;;16.26;79.24
57412;BME280;43247;52.828;-8.980;2023-06-26T00:30:14;101614.00;;;16.25;79.16
57412;BME280;43247;52.828;-8.980;2023-06-26T00:31:14;101616.39;;;16.25;79.23
57412;BME280;43247;52.828;-8.980;2023-06-26T00:32:15;101617.55;;;16.25;79.32
57412;BME280;43247;52.828;-8.980;2023-06-26T00:33:15;101619.84;;;16.24;79.31
57412;BME280;43247;52.828;-8.980;2023-06-26T00:34:15;101620.27;;;16.23;79.38
57412;BME280;43247;52.828;-8.980;2023-06-26T00:35:15;101619.27;;;16.23;79.52
57412;BME280;43247;52.828;-8.980;2023-06-26T00:36:15;101623.39;;;16.23;79.58
57412;BME280;43247;52.828;-8.980;2023-06-26T00:37:15;101624.29;;;16.22;79.66
57412;BME280;43247;52.828;-8.980;2023-06-26T00:38:15;101623.96;;;16.22;79.70
57412;BME280;43247;52.828;-8.980;2023-06-26T00:39:16;101625.84;;;16.22;79.65
57412;BME280;43247;52.828;-8.980;2023-06-26T00:40:16;101624.25;;;16.21;79.66
57412;BME280;43247;52.828;-8.980;2023-06-26T00:41:16;101624.33;;;16.21;79.59
57412;BME280;43247;52.828;-8.980;2023-06-26T00:42:16;101626.07;;;16.20;79.65
57412;BME280;43247;52.828;-8.980;2023-06-26T00:43:16;101625.83;;;16.20;79.69
57412;BME280;43247;52.828;-8.980;2023-06-26T00:44:16;101625.50;;;16.20;79.70
57412;BME280;43247;52.828;-8.980;2023-06-26T00:45:17;101624.11;;;16.19;79.66
57412;BME280;43247;52.828;-8.980;2023-06-26T00:46:17;101621.44;;;16.19;79.62
57412;BME280;43247;52.828;-8.980;2023-06-26T00:47:17;101622.75;;;16.19;79.62
57412;BME280;43247;52.828;-8.980;2023-06-26T00:48:17;101624.07;;;16.18;79.78
57412;BME280;43247;52.828;-8.980;2023-06-26T00:49:17;101622.27;;;16.18;79.82
57412;BME280;43247;52.828;-8.980;2023-06-26T00:50:18;101623.01;;;16.18;79.77
57412;BME280;43247;52.828;-8.980;2023-06-26T00:51:18;101622.93;;;16.16;79.66
57412;BME280;43247;52.828;-8.980;2023-06-26T00:52:18;101623.42;;;16.15;79.43
57412;BME280;43247;52.828;-8.980;2023-06-26T00:53:18;101628.61;;;16.15;79.47
57412;BME280;43247;52.828;-8.980;2023-06-26T00:54:18;101626.81;;;16.15;79.57
57412;BME280;43247;52.828;-8.980;2023-06-26T00:55:18;101625.80;;;16.13;79.53
57412;BME280;43247;52.828;-8.980;2023-06-26T00:56:20;101623.77;;;16.13;79.47
57412;BME280;43247;52.828;-8.980;2023-06-26T00:57:19;101626.21;;;16.12;79.38
57412;BME280;43247;52.828;-8.980;2023-06-26T00:58:19;101627.76;;;16.12;79.47
57412;BME280;43247;52.828;-8.980;2023-06-26T00:59:19;101626.81;;;16.10;79.45
57412;BME280;43247;52.828;-8.980;2023-06-26T01:00:19;101627.18;;;16.10;79.33
57412;BME280;43247;52.828;-8.980;2023-06-26T01:01:19;101624.01;;;16.10;79.28
57412;BME280;43247;52.828;-8.980;2023-06-26T01:02:19;101624.29;;;16.09;79.29
57412;BME280;43247;52.828;-8.980;2023-06-26T01:03:19;101624.12;;;16.08;79.17
57412;BME280;43247;52.828;-8.980;2023-06-26T01:04:19;101625.47;;;16.08;79.25
57412;BME280;43247;52.828;-8.980;2023-06-26T01:05:20;101624.23;;;16.07;79.25
57412;BME280;43247;52.828;-8.980;2023-06-26T01:06:23;101623.55;;;16.06;79.27
57412;BME280;43247;52.828;-8.980;2023-06-26T01:07:21;101623.79;;;16.05;79.22
57412;BME280;43247;52.828;-8.980;2023-06-26T01:08:20;101624.20;;;16.05;79.24
57412;BME280;43247;52.828;-8.980;2023-06-26T01:09:21;101622.45;;;16.04;79.36
57412;BME280;43247;52.828;-8.980;2023-06-26T01:10:20;101625.62;;;16.03;79.33
57412;BME280;43247;52.828;-8.980;2023-06-26T01:11:20;101629.42;;;16.03;79.39
57412;BME280;43247;52.828;-8.980;2023-06-26T01:12:21;101632.18;;;16.02;79.49
57412;BME280;43247;52.828;-8.980;2023-06-26T01:13:21;101632.61;;;16.02;79.39
57412;BME280;43247;52.828;-8.980;2023-06-26T01:14:21;101633.82;;;16.01;79.44
57412;BME280;43247;52.828;-8.980;2023-06-26T01:15:21;101633.05;;;16.00;79.43
57412;BME280;43247;52.828;-8.980;2023-06-26T01:16:21;101632.82;;;15.99;79.37
57412;BME280;43247;52.828;-8.980;2023-06-26T01:17:22;101635.52;;;15.99;79.36
57412;BME280;43247;52.828;-8.980;2023-06-26T01:18:22;101635.18;;;15.99;79.46
57412;BME280;43247;52.828;-8.980;2023-06-26T01:19:24;101635.19;;;15.99;79.68
57412;BME280;43247;52.828;-8.980;2023-06-26T01:20:22;101636.13;;;15.97;79.56
57412;BME280;43247;52.828;-8.980;2023-06-26T01:21:23;101637.02;;;15.97;79.51
57412;BME280;43247;52.828;-8.980;2023-06-26T01:22:27;101636.91;;;15.96;79.54
57412;BME280;43247;52.828;-8.980;2023-06-26T01:23:28;101634.42;;;15.95;79.35
57412;BME280;43247;52.828;-8.980;2023-06-26T01:24:24;101635.44;;;15.95;79.31
57412;BME280;43247;52.828;-8.980;2023-06-26T01:25:30;101634.43;;;15.96;79.47
57412;BME280;43247;52.828;-8.980;2023-06-26T01:26:26;101634.39;;;15.94;79.39
57412;BME280;43247;52.828;-8.980;2023-06-26T01:27:24;101635.38;;;15.94;79.27
57412;BME280;43247;52.828;-8.980;2023-06-26T01:28:25;101633.98;;;15.94;79.28
57412;BME280;43247;52.828;-8.980;2023-06-26T01:29:24;101632.74;;;15.93;79.31
57412;BME280;43247;52.828;-8.980;2023-06-26T01:30:25;101632.36;;;15.92;79.35
57412;BME280;43247;52.828;-8.980;2023-06-26T01:31:24;101634.22;;;15.91;79.30
57412;BME280;43247;52.828;-8.980;2023-06-26T01:32:24;101634.95;;;15.91;79.36
57412;BME280;43247;52.828;-8.980;2023-06-26T01:33:25;101635.71;;;15.90;79.38
57412;BME280;43247;52.828;-8.980;2023-06-26T01:34:25;101634.92;;;15.90;79.33
57412;BME280;43247;52.828;-8.980;2023-06-26T01:35:25;101635.74;;;15.90;79.44
57412;BME280;43247;52.828;-8.980;2023-06-26T01:36:25;101634.49;;;15.89;79.40
57412;BME280;43247;52.828;-8.980;2023-06-26T01:37:25;101634.50;;;15.89;79.47
57412;BME280;43247;52.828;-8.980;2023-06-26T01:38:25;101632.69;;;15.89;79.39
57412;BME280;43247;52.828;-8.980;2023-06-26T01:39:25;101635.38;;;15.88;79.33
57412;BME280;43247;52.828;-8.980;2023-06-26T01:40:26;101636.43;;;15.88;79.43
57412;BME280;43247;52.828;-8.980;2023-06-26T01:41:26;101636.08;;;15.88;79.35
57412;BME280;43247;52.828;-8.980;2023-06-26T01:42:26;101637.71;;;15.88;79.57
57412;BME280;43247;52.828;-8.980;2023-06-26T01:43:29;101637.37;;;15.88;79.54
57412;BME280;43247;52.828;-8.980;2023-06-26T01:44:28;101638.27;;;15.88;79.55
57412;BME280;43247;52.828;-8.980;2023-06-26T01:45:27;101638.34;;;15.88;79.65
57412;BME280;43247;52.828;-8.980;2023-06-26T01:46:32;101640.43;;;15.88;79.53
57412;BME280;43247;52.828;-8.980;2023-06-26T01:47:28;101641.25;;;15.89;79.65
57412;BME280;43247;52.828;-8.980;2023-06-26T01:48:33;101643.23;;;15.88;79.67
57412;BME280;43247;52.828;-8.980;2023-06-26T01:49:35;101644.09;;;15.88;79.56
57412;BME280;43247;52.828;-8.980;2023-06-26T01:50:29;101641.77;;;15.88;79.55
57412;BME280;43247;52.828;-8.980;2023-06-26T01:51:32;101644.07;;;15.88;79.57
57412;BME280;43247;52.828;-8.980;2023-06-26T01:52:35;101644.16;;;15.88;79.64
57412;BME280;43247;52.828;-8.980;2023-06-26T01:53:34;101644.13;;;15.88;79.71
57412;BME280;43247;52.828;-8.980;2023-06-26T01:54:30;101644.04;;;15.88;79.75
57412;BME280;43247;52.828;-8.980;2023-06-26T01:55:32;101641.97;;;15.88;79.81
57412;BME280;43247;52.828;-8.980;2023-06-26T01:56:29;101640.45;;;15.88;79.75
57412;BME280;43247;52.828;-8.980;2023-06-26T01:57:30;101640.12;;;15.89;79.72
57412;BME280;43247;52.828;-8.980;2023-06-26T01:58:29;101639.02;;;15.89;79.94
57412;BME280;43247;52.828;-8.980;2023-06-26T01:59:32;101636.88;;;15.88;79.86
57412;BME280;43247;52.828;-8.980;2023-06-26T02:00:29;101636.52;;;15.88;79.84
57412;BME280;43247;52.828;-8.980;2023-06-26T02:01:29;101638.49;;;15.89;79.80
57412;BME280;43247;52.828;-8.980;2023-06-26T02:02:29;101637.12;;;15.90;79.77
57412;BME280;43247;52.828;-8.980;2023-06-26T02:03:29;101636.17;;;15.89;79.82
57412;BME280;43247;52.828;-8.980;2023-06-26T02:04:29;101637.52;;;15.89;79.88
57412;BME280;43247;52.828;-8.980;2023-06-26T02:05:29;101637.33;;;15.89;79.82
57412;BME280;43247;52.828;-8.980;2023-06-26T02:06:30;101642.73;;;15.89;79.84
57412;BME280;43247;52.828;-8.980;2023-06-26T02:07:30;101642.52;;;15.90;79.84
57412;BME280;43247;52.828;-8.980;2023-06-26T02:08:30;101645.64;;;15.89;79.86
57412;BME280;43247;52.828;-8.980;2023-06-26T02:09:30;101648.89;;;15.90;79.80
57412;BME280;43247;52.828;-8.980;2023-06-26T02:10:30;101650.54;;;15.90;79.93
57412;BME280;43247;52.828;-8.980;2023-06-26T02:11:30;101650.76;;;15.90;79.89
57412;BME280;43247;52.828;-8.980;2023-06-26T02:12:31;101649.04;;;15.91;79.92
57412;BME280;43247;52.828;-8.980;2023-06-26T02:13:31;101646.32;;;15.91;79.93
57412;BME280;43247;52.828;-8.980;2023-06-26T02:14:31;101643.49;;;15.92;79.86
57412;BME280;43247;52.828;-8.980;2023-06-26T02:15:31;101645.35;;;15.91;79.87
57412;BME280;43247;52.828;-8.980;2023-06-26T02:16:31;101647.68;;;15.92;79.84
57412;BME280;43247;52.828;-8.980;2023-06-26T02:17:31;101648.37;;;15.92;79.83
57412;BME280;43247;52.828;-8.980;2023-06-26T02:18:31;101647.39;;;15.93;79.98
57412;BME280;43247;52.828;-8.980;2023-06-26T02:19:32;101648.66;;;15.94;79.98
57412;BME280;43247;52.828;-8.980;2023-06-26T02:20:32;101644.92;;;15.93;80.00
57412;BME280;43247;52.828;-8.980;2023-06-26T02:21:33;101644.72;;;15.92;80.05
57412;BME280;43247;52.828;-8.980;2023-06-26T02:22:33;101646.59;;;15.92;79.84
57412;BME280;43247;52.828;-8.980;2023-06-26T02:23:33;101644.42;;;15.93;79.73
57412;BME280;43247;52.828;-8.980;2023-06-26T02:24:33;101646.86;;;15.92;79.82
57412;BME280;43247;52.828;-8.980;2023-06-26T02:25:33;101646.65;;;15.92;79.79
57412;BME280;43247;52.828;-8.980;2023-06-26T02:26:33;101645.54;;;15.92;79.80
57412;BME280;43247;52.828;-8.980;2023-06-26T02:27:33;101648.09;;;15.92;79.77
57412;BME280;43247;52.828;-8.980;2023-06-26T02:28:34;101652.33;;;15.92;79.81
57412;BME280;43247;52.828;-8.980;2023-06-26T02:29:34;101653.24;;;15.92;79.85
57412;BME280;43247;52.828;-8.980;2023-06-26T02:30:34;101653.48;;;15.91;79.84
57412;BME280;43247;52.828;-8.980;2023-06-26T02:31:34;101656.80;;;15.91;79.77
57412;BME280;43247;52.828;-8.980;2023-06-26T02:32:35;101657.11;;;15.91;79.84
57412;BME280;43247;52.828;-8.980;2023-06-26T02:33:35;101658.22;;;15.91;79.86
57412;BME280;43247;52.828;-8.980;2023-06-26T02:34:35;101661.90;;;15.91;79.85
57412;BME280;43247;52.828;-8.980;2023-06-26T02:35:35;101662.29;;;15.91;79.86
57412;BME280;43247;52.828;-8.980;2023-06-26T02:36:35;101661.26;;;15.90;79.91
57412;BME280;43247;52.828;-8.980;2023-06-26T02:37:36;101662.16;;;15.90;79.85
57412;BME280;43247;52.828;-8.980;2023-06-26T02:38:36;101662.65;;;15.90;79.88
57412;BME280;43247;52.828;-8.980;2023-06-26T02:39:36;101661.03;;;15.89;79.78
57412;BME280;43247;52.828;-8.980;2023-06-26T02:40:36;101660.94;;;15.89;79.76
57412;BME280;43247;52.828;-8.980;2023-06-26T02:41:36;101659.14;;;15.88;79.72
57412;BME280;43247;52.828;-8.980;2023-06-26T02:42:37;101658.11;;;15.87;79.65
57412;BME280;43247;52.828;-8.980;2023-06-26T02:43:36;101659.82;;;15.87;79.61
57412;BME280;43247;52.828;-8.980;2023-06-26T02:44:37;101660.96;;;15.85;79.64
57412;BME280;43247;52.828;-8.980;2023-06-26T02:45:37;101660.34;;;15.85;79.62
57412;BME280;43247;52.828;-8.980;2023-06-26T02:46:37;101659.30;;;15.86;79.59
57412;BME280;43247;52.828;-8.980;2023-06-26T02:47:37;101663.33;;;15.85;79.62
57412;BME280;43247;52.828;-8.980;2023-06-26T02:48:37;101665.24;;;15.84;79.57
57412;BME280;43247;52.828;-8.980;2023-06-26T02:49:37;101668.36;;;15.83;79.57
57412;BME280;43247;52.828;-8.980;2023-06-26T02:50:37;101669.17;;;15.82;79.59
57412;BME280;43247;52.828;-8.980;2023-06-26T02:51:38;101671.79;;;15.82;79.58
57412;BME280;43247;52.828;-8.980;2023-06-26T02:52:38;101670.57;;;15.82;79.61
57412;BME280;43247;52.828;-8.980;2023-06-26T02:53:38;101669.43;;;15.81;79.55
57412;BME280;43247;52.828;-8.980;2023-06-26T02:54:38;101672.56;;;15.81;79.64
57412;BME280;43247;52.828;-8.980;2023-06-26T02:55:38;101672.69;;;15.80;79.70
57412;BME280;43247;52.828;-8.980;2023-06-26T02:56:38;101673.08;;;15.80;79.71
57412;BME280;43247;52.828;-8.980;2023-06-26T02:57:39;101674.77;;;15.79;79.79
57412;BME280;43247;52.828;-8.980;2023-06-26T02:58:39;101674.63;;;15.79;79.89
57412;BME280;43247;52.828;-8.980;2023-06-26T02:59:39;101674.07;;;15.78;79.87
57412;BME280;43247;52.828;-8.980;2023-06-26T03:00:39;101673.45;;;15.78;79.80
57412;BME280;43247;52.828;-8.980;2023-06-26T03:01:39;101674.58;;;15.78;79.88
57412;BME280;43247;52.828;-8.980;2023-06-26T03:02:39;101673.65;;;15.78;79.92
57412;BME280;43247;52.828;-8.980;2023-06-26T03:03:40;101676.07;;;15.79;79.93
57412;BME280;43247;52.828;-8.980;2023-06-26T03:04:40;101679.21;;;15.78;80.02
57412;BME280;43247;52.828;-8.980;2023-06-26T03:05:40;101682.48;;;15.78;79.97
57412;BME280;43247;52.828;-8.980;2023-06-26T03:06:40;101682.81;;;15.77;80.01
57412;BME280;43247;52.828;-8.980;2023-06-26T03:07:40;101682.51;;;15.78;79.94
57412;BME280;43247;52.828;-8.980;2023-06-26T03:08:41;101682.47;;;15.76;79.89
57412;BME280;43247;52.828;-8.980;2023-06-26T03:09:41;101681.18;;;15.76;79.64
57412;BME280;43247;52.828;-8.980;2023-06-26T03:10:41;101678.88;;;15.75;79.62
57412;BME280;43247;52.828;-8.980;2023-06-26T03:11:41;101679.36;;;15.76;79.70
57412;BME280;43247;52.828;-8.980;2023-06-26T03:12:41;101676.36;;;15.76;79.70
57412;BME280;43247;52.828;-8.980;2023-06-26T03:13:41;101672.03;;;15.76;79.77
57412;BME280;43247;52.828;-8.980;2023-06-26T03:14:42;101671.96;;;15.76;79.73
57412;BME280;43247;52.828;-8.980;2023-06-26T03:15:42;101669.35;;;15.76;79.80
57412;BME280;43247;52.828;-8.980;2023-06-26T03:16:42;101670.21;;;15.76;79.77
57412;BME280;43247;52.828;-8.980;2023-06-26T03:17:42;101668.63;;;15.77;79.77
57412;BME280;43247;52.828;-8.980;2023-06-26T03:18:43;101668.22;;;15.77;79.82
57412;BME280;43247;52.828;-8.980;2023-06-26T03:19:43;101667.38;;;15.77;79.85
57412;BME280;43247;52.828;-8.980;2023-06-26T03:20:43;101670.12;;;15.76;79.94
57412;BME280;43247;52.828;-8.980;2023-06-26T03:21:44;101671.95;;;15.78;79.88
57412;BME280;43247;52.828;-8.980;2023-06-26T03:22:44;101669.51;;;15.77;79.93
57412;BME280;43247;52.828;-8.980;2023-06-26T03:23:44;101669.82;;;15.77;79.82
57412;BME280;43247;52.828;-8.980;2023-06-26T03:24:45;101665.73;;;15.77;79.79
57412;BME280;43247;52.828;-8.980;2023-06-26T03:25:45;101662.54;;;15.77;79.74
57412;BME280;43247;52.828;-8.980;2023-06-26T03:26:45;101662.24;;;15.76;79.67
57412;BME280;43247;52.828;-8.980;2023-06-26T03:27:45;101659.35;;;15.76;79.63
57412;BME280;43247;52.828;-8.980;2023-06-26T03:28:45;101658.16;;;15.76;79.67
57412;BME280;43247;52.828;-8.980;2023-06-26T03:29:46;101659.16;;;15.75;79.64
57412;BME280;43247;52.828;-8.980;2023-06-26T03:30:46;101658.71;;;15.75;79.63
57412;BME280;43247;52.828;-8.980;2023-06-26T03:31:46;101663.16;;;15.75;79.71
57412;BME280;43247;52.828;-8.980;2023-06-26T03:32:46;101659.06;;;15.75;79.72
57412;BME280;43247;52.828;-8.980;2023-06-26T03:33:46;101662.47;;;15.76;79.78
57412;BME280;43247;52.828;-8.980;2023-06-26T03:34:46;101664.94;;;15.75;79.81
57412;BME280;43247;52.828;-8.980;2023-06-26T03:35:46;101665.70;;;15.75;79.90
57412;BME280;43247;52.828;-8.980;2023-06-26T03:36:46;101667.24;;;15.76;79.91
57412;BME280;43247;52.828;-8.980;2023-06-26T03:37:47;101668.60;;;15.76;79.90
57412;BME280;43247;52.828;-8.980;2023-06-26T03:38:47;101672.73;;;15.76;80.01
57412;BME280;43247;52.828;-8.980;2023-06-26T03:39:47;101673.79;;;15.76;80.02
57412;BME280;43247;52.828;-8.980;2023-06-26T03:40:47;101676.41;;;15.76;80.01
57412;BME280;43247;52.828;-8.980;2023-06-26T03:41:47;101677.05;;;15.76;80.08
57412;BME280;43247;52.828;-8.980;2023-06-26T03:42:48;101678.57;;;15.76;80.16
57412;BME280;43247;52.828;-8.980;2023-06-26T03:43:48;101678.16;;;15.76;80.19
57412;BME280;43247;52.828;-8.980;2023-06-26T03:44:48;101679.53;;;15.77;80.16
57412;BME280;43247;52.828;-8.980;2023-06-26T03:45:49;101678.65;;;15.77;80.24
57412;BME280;43247;52.828;-8.980;2023-06-26T03:46:49;101680.35;;;15.77;80.27
57412;BME280;43247;52.828;-8.980;2023-06-26T03:47:49;101681.20;;;15.78;80.28
57412;BME280;43247;52.828;-8.980;2023-06-26T03:48:49;101683.52;;;15.77;80.17
57412;BME280;43247;52.828;-8.980;2023-06-26T03:49:49;101685.55;;;15.78;80.21
57412;BME280;43247;52.828;-8.980;2023-06-26T03:50:49;101684.00;;;15.77;80.26
57412;BME280;43247;52.828;-8.980;2023-06-26T03:51:49;101686.05;;;15.78;80.31
57412;BME280;43247;52.828;-8.980;2023-06-26T03:52:50;101690.30;;;15.77;80.32
57412;BME280;43247;52.828;-8.980;2023-06-26T03:53:50;101688.41;;;15.78;80.26
57412;BME280;43247;52.828;-8.980;2023-06-26T03:54:50;101692.23;;;15.78;80.47
57412;BME280;43247;52.828;-8.980;2023-06-26T03:55:50;101690.99;;;15.78;80.39
57412;BME280;43247;52.828;-8.980;2023-06-26T03:56:50;101691.74;;;15.78;80.42
57412;BME280;43247;52.828;-8.980;2023-06-26T03:57:50;101690.74;;;15.77;80.40
57412;BME280;43247;52.828;-8.980;2023-06-26T03:58:51;101691.19;;;15.77;80.39
57412;BME280;43247;52.828;-8.980;2023-06-26T03:59:52;101694.38;;;15.77;80.48
57412;BME280;43247;52.828;-8.980;2023-06-26T04:00:51;101696.16;;;15.78;80.40
57412;BME280;43247;52.828;-8.980;2023-06-26T04:01:51;101699.25;;;15.78;80.47
57412;BME280;43247;52.828;-8.980;2023-06-26T04:02:51;101698.16;;;15.78;80.50
57412;BME280;43247;52.828;-8.980;2023-06-26T04:03:51;101698.94;;;15.78;80.50
57412;BME280;43247;52.828;-8.980;2023-06-26T04:04:51;101698.46;;;15.78;80.49
57412;BME280;43247;52.828;-8.980;2023-06-26T04:05:52;101696.38;;;15.78;80.50
57412;BME280;43247;52.828;-8.980;2023-06-26T04:06:52;101699.89;;;15.79;80.50
57412;BME280;43247;52.828;-8.980;2023-06-26T04:07:52;101700.90;;;15.79;80.63
57412;BME280;43247;52.828;-8.980;2023-06-26T04:08:52;101704.18;;;15.79;80.69
57412;BME280;43247;52.828;-8.980;2023-06-26T04:09:52;101704.09;;;15.78;80.74
57412;BME280;43247;52.828;-8.980;2023-06-26T04:10:52;101704.38;;;15.78;80.58
57412;BME280;43247;52.828;-8.980;2023-06-26T04:11:53;101705.32;;;15.78;80.53
57412;BME280;43247;52.828;-8.980;2023-06-26T04:12:53;101703.36;;;15.78;80.54
57412;BME280;43247;52.828;-8.980;2023-06-26T04:13:53;101708.58;;;15.78;80.61
57412;BME280;43247;52.828;-8.980;2023-06-26T04:14:53;101706.60;;;15.78;80.57
57412;BME280;43247;52.828;-8.980;2023-06-26T04:15:53;101706.07;;;15.78;80.56
57412;BME280;43247;52.828;-8.980;2023-06-26T04:16:53;101707.48;;;15.78;80.50
57412;BME280;43247;52.828;-8.980;2023-06-26T04:17:54;101706.95;;;15.77;80.51
57412;BME280;43247;52.828;-8.980;2023-06-26T04:18:54;101700.98;;;15.78;80.56
57412;BME280;43247;52.828;-8.980;2023-06-26T04:19:54;101702.96;;;15.78;80.52
57412;BME280;43247;52.828;-8.980;2023-06-26T04:21:54;101705.88;;;15.78;80.50
57412;BME280;43247;52.828;-8.980;2023-06-26T04:22:54;101709.43;;;15.78;80.53
57412;BME280;43247;52.828;-8.980;2023-06-26T04:23:54;101704.93;;;15.77;80.48
57412;BME280;43247;52.828;-8.980;2023-06-26T04:24:55;101709.52;;;15.77;80.54
57412;BME280;43247;52.828;-8.980;2023-06-26T04:25:55;101707.79;;;15.78;80.48
57412;BME280;43247;52.828;-8.980;2023-06-26T04:26:55;101709.81;;;15.78;80.45
57412;BME280;43247;52.828;-8.980;2023-06-26T04:27:55;101713.08;;;15.78;80.42
57412;BME280;43247;52.828;-8.980;2023-06-26T04:28:55;101715.47;;;15.78;80.49
57412;BME280;43247;52.828;-8.980;2023-06-26T04:29:55;101716.47;;;15.78;80.45
57412;BME280;43247;52.828;-8.980;2023-06-26T04:30:56;101717.74;;;15.77;80.37
57412;BME280;43247;52.828;-8.980;2023-06-26T04:31:56;101718.49;;;15.77;80.30
57412;BME280;43247;52.828;-8.980;2023-06-26T04:32:56;101715.36;;;15.77;80.31
57412;BME280;43247;52.828;-8.980;2023-06-26T04:33:56;101720.44;;;15.77;80.21
57412;BME280;43247;52.828;-8.980;2023-06-26T04:34:56;101721.66;;;15.77;80.22
57412;BME280;43247;52.828;-8.980;2023-06-26T04:35:56;101723.61;;;15.77;80.31
57412;BME280;43247;52.828;-8.980;2023-06-26T04:36:56;101724.82;;;15.77;80.31
57412;BME280;43247;52.828;-8.980;2023-06-26T04:37:57;101725.81;;;15.77;80.23
57412;BME280;43247;52.828;-8.980;2023-06-26T04:38:57;101726.23;;;15.76;80.30
57412;BME280;43247;52.828;-8.980;2023-06-26T04:39:57;101728.50;;;15.76;80.27
57412;BME280;43247;52.828;-8.980;2023-06-26T04:40:57;101730.03;;;15.77;80.28
57412;BME280;43247;52.828;-8.980;2023-06-26T04:41:57;101733.92;;;15.76;80.29
57412;BME280;43247;52.828;-8.980;2023-06-26T04:42:57;101736.01;;;15.76;80.30
57412;BME280;43247;52.828;-8.980;2023-06-26T04:43:58;101735.85;;;15.77;80.26
57412;BME280;43247;52.828;-8.980;2023-06-26T04:44:58;101738.02;;;15.77;80.35
57412;BME280;43247;52.828;-8.980;2023-06-26T04:45:58;101737.35;;;15.77;80.35
57412;BME280;43247;52.828;-8.980;2023-06-26T04:46:58;101738.08;;;15.77;80.30
57412;BME280;43247;52.828;-8.980;2023-06-26T04:47:58;101735.12;;;15.77;80.23
57412;BME280;43247;52.828;-8.980;2023-06-26T04:48:58;101736.36;;;15.77;80.24
57412;BME280;43247;52.828;-8.980;2023-06-26T04:49:59;101735.68;;;15.77;80.35
57412;BME280;43247;52.828;-8.980;2023-06-26T04:50:59;101735.88;;;15.77;80.31
57412;BME280;43247;52.828;-8.980;2023-06-26T04:51:59;101740.52;;;15.78;80.35
57412;BME280;43247;52.828;-8.980;2023-06-26T04:53:00;101738.13;;;15.78;80.26
57412;BME280;43247;52.828;-8.980;2023-06-26T04:54:00;101739.06;;;15.78;80.45
57412;BME280;43247;52.828;-8.980;2023-06-26T04:55:00;101739.81;;;15.79;80.42
57412;BME280;43247;52.828;-8.980;2023-06-26T04:56:00;101740.81;;;15.80;80.43
57412;BME280;43247;52.828;-8.980;2023-06-26T04:57:01;101740.35;;;15.80;80.55
57412;BME280;43247;52.828;-8.980;2023-06-26T04:58:01;101738.49;;;15.81;80.55
57412;BME280;43247;52.828;-8.980;2023-06-26T04:59:03;101740.04;;;15.81;80.58
57412;BME280;43247;52.828;-8.980;2023-06-26T05:00:04;101741.73;;;15.82;80.53
57412;BME280;43247;52.828;-8.980;2023-06-26T05:01:04;101742.53;;;15.83;80.51
57412;BME280;43247;52.828;-8.980;2023-06-26T05:02:05;101744.96;;;15.83;80.65
57412;BME280;43247;52.828;-8.980;2023-06-26T05:03:04;101744.38;;;15.84;80.63
57412;BME280;43247;52.828;-8.980;2023-06-26T05:04:04;101744.91;;;15.84;80.64
57412;BME280;43247;52.828;-8.980;2023-06-26T05:05:05;101746.02;;;15.85;80.65
57412;BME280;43247;52.828;-8.980;2023-06-26T05:06:05;101748.01;;;15.85;80.63
57412;BME280;43247;52.828;-8.980;2023-06-26T05:07:05;101750.51;;;15.85;80.64
57412;BME280;43247;52.828;-8.980;2023-06-26T05:08:14;101753.65;;;15.85;80.67
57412;BME280;43247;52.828;-8.980;2023-06-26T05:09:05;101758.92;;;15.86;80.67
57412;BME280;43247;52.828;-8.980;2023-06-26T05:10:06;101762.91;;;15.88;80.63
57412;BME280;43247;52.828;-8.980;2023-06-26T05:11:05;101769.48;;;15.88;80.67